Airfield :
LOGIN :

Register | Disclaimer

   EN    FR    IT 

 










Legend :    VFR   Marginal VFR   IFR   Intensive IFR   Very Intensive IFR
Visi :
Ceiling :
>= 8 km
>= 3000ft
5 to 8 km
1000 to 3000 ft
1500m to 5 km
500 to 1000 ft
800 to 1500m
200 to 500 ft
< 800m
< 200 ft
Symbols :   Thunderstorms  Fog  Heavy snow  Heavy precipitations  Wind > 20 kt
SIGMETs :     Misc.  Thunderstorms  Icing  Turbulence  Mountain Waves  Volcanic Ashes






- Airport Elevation : 1187 ft


LIBV - Gioia del Colle Bari

CURRENT METAR :
  • 280255Z 34007KT 9999 SCT007 21/21 Q1015 RMK SCT VIS MIN 8000N WIND THR32 36008KT WIND THR14 34010KT BLU

EXPIRED METARs :
  • 280217Z 34008KT 9999 SCT014 21/21 Q1016 RMK SCT VIS MIN 8000N WIND THR32 36009KT WIND THR14 34010KT BLU
  • 280155Z 33008KT 6000 BKN007 SCT014 21/21 Q1016 RMK BKN VIS MIN 4000N WIND THR32 36010KT WIND THR14 34012KT GRN
  • 280055Z 33008KT 6000 BKN007 SCT014 21/21 Q1016 RMK BKN VIS MIN 4000N WIND THR32 34011KT WIND THR14 33010KT GRN

TAF TAF LIBV
Valid from the 28 at 03:00 until the 28 at 12:00 UTC


280200Z 2803/2812 35008KT 9999 SCT025
TEMPO 2803/2806 5000 BR SCT005



MET'MAP, your aeronautical weather chart ! - Copyright ORBIFLY December 2007 - Disclaimer

ORBIFLY MET'MAP TEAM :

Programming & Development : Alexandra Zaïnal
Concept & original design : Baudouin d'Aumeries
Assistance for programming : Marc-Olivier Méhu
Technical & hardware support : Manuel Goepfert

Contact : metmap@orbifly.com




SOURCES & CREDITS :

   NOAA